Latest Weather Observations for Naracoorte

IDS60801

Issued at 6:01 pm CST Thursday 26 May 2016 (issued every 30 minutes, with the page automatically refreshed every 10 minutes)

About weather observations | Map of weather stations | Latest weather observations for SA | Other Formats
Station Details ID: 026099 Name: NARACOORTE AERODROME Lat: -36.98 Lon: 140.73 Height: 49.72 m
Data from the previous 72 hours. | See also: Recent months at Naracoorte
Date/Time
CST
Temp
°C
App
Temp
°C
Dew
Point
Rel
Hum
%
Delta-T
°C
Wind Press
QNH
hPa
Press
MSL
hPa
Rain
since 9 am
mm
Dir
 
Spd
km/h
Gust
km/h
Spd
kts
Gust
kts
26/06:00pm 8.8 5.7 7.3 90 0.7 W 13 15 7 8 1008.8 1008.8 0.0
26/05:30pm 9.0 5.8 6.8 86 1.0 W 13 13 7 7 1008.5 1008.5 0.0
26/05:00pm 10.6 7.3 8.2 85 1.2 W 15 17 8 9 1008.2 1008.2 0.0
26/04:30pm 11.7 8.0 7.8 77 1.9 W 17 20 9 11 1007.8 1007.8 0.0
26/04:00pm 13.0 8.3 7.9 71 2.5 WSW 22 28 12 15 1007.4 1007.4 0.0
26/03:30pm 14.3 9.7 8.3 67 3.0 WSW 22 28 12 15 1007.5 1007.5 0.0
26/03:00pm 13.8 9.2 9.8 77 2.1 WSW 24 30 13 16 1007.4 1007.4 0.0
26/02:30pm 15.2 11.0 8.2 63 3.5 WSW 20 30 11 16 1006.9 1006.9 0.0
26/02:00pm 14.2 8.1 6.8 61 3.6 SW 28 37 15 20 1006.8 1006.8 0.0
26/01:30pm 15.1 9.7 7.9 62 3.6 SW 26 33 14 18 1006.9 1006.9 0.0
26/01:00pm 14.5 10.2 8.0 65 3.2 WSW 20 33 11 18 1006.9 1006.9 0.0
26/12:30pm 13.4 10.4 10.8 84 1.4 W 17 24 9 13 1007.2 1007.2 0.0
26/12:00pm 14.2 10.3 8.6 69 2.8 WSW 19 24 10 13 1007.2 1007.2 0.0
26/11:30am 14.0 10.1 8.8 71 2.6 SW 19 24 10 13 1007.5 1007.5 0.0
26/11:00am 13.1 10.2 8.2 72 2.4 SW 13 17 7 9 1007.7 1007.7 0.0
26/10:30am 13.1 9.7 9.2 77 2.0 SSW 17 22 9 12 1007.7 1007.7 0.0
26/10:00am 12.5 9.9 9.3 81 1.6 S 13 17 7 9 1007.6 1007.6 0.0
26/09:30am 11.2 8.5 8.8 85 1.2 SSW 13 15 7 8 1007.4 1007.4 0.0
26/09:00am 10.6 8.2 10.0 96 0.3 SW 13 20 7 11 1007.6 1007.6 11.6
26/08:30am 9.2 7.8 8.7 97 0.2 W 6 15 3 8 1007.5 1007.5 11.6
26/08:00am 7.9 6.2 7.5 97 0.2 W 6 7 3 4 1007.2 1007.2 11.6
26/07:30am 8.1 6.4 7.7 97 0.2 W 6 7 3 4 1006.9 1006.9 11.6
26/07:00am 8.0 5.7 7.6 97 0.2 WNW 9 11 5 6 1006.4 1006.4 11.6
26/06:30am 8.0 7.4 7.6 97 0.2 CALM 0 0 0 0 1006.2 1006.2 11.4
26/06:00am 8.0 7.4 7.6 97 0.2 CALM 0 0 0 0 1005.8 1005.8 11.4
26/05:30am 8.1 7.2 7.7 97 0.2 W 2 7 1 4 1005.8 1005.8 11.4
26/05:00am 8.4 5.9 8.0 97 0.2 SSW 11 13 6 7 1005.6 1005.6 11.4
26/04:30am 9.0 6.2 8.6 97 0.2 SW 13 17 7 9 1005.4 1005.4 11.4
26/04:00am 9.7 7.5 9.2 97 0.2 WSW 11 15 6 8 1005.1 1005.1 11.4
26/03:30am 10.5 8.5 10.0 97 0.3 W 11 11 6 6 1005.1 1005.1 11.4
26/03:00am 10.8 9.2 10.3 97 0.3 WNW 9 9 5 5 1005.3 1005.3 11.4
26/02:30am 10.9 9.4 10.4 97 0.3 W 9 11 5 6 1005.1 1005.1 11.4
26/02:00am 11.0 9.9 10.5 97 0.3 WNW 7 9 4 5 1005.2 1005.2 11.4
26/01:30am 11.1 10.0 10.6 97 0.3 W 7 11 4 6 1004.9 1004.9 11.4
26/01:00am 11.3 9.5 10.8 97 0.3 W 11 15 6 8 1005.5 1005.5 11.4
26/12:30am 11.4 9.6 10.9 97 0.3 W 11 13 6 7 1004.9 1004.9 11.4
26/12:00am 11.6 8.7 11.1 97 0.3 W 17 22 9 12 1005.6 1005.6 11.4
 
Date/Time
CST
Temp
°C
App
Temp
°C
Dew
Point
Rel
Hum
%
Delta-T
°C
Wind Press
QNH
hPa
Press
MSL
hPa
Rain
since 9 am
mm
Dir
 
Spd
km/h
Gust
km/h
Spd
kts
Gust
kts
25/11:30pm 11.7 9.2 11.2 97 0.3 WNW 15 17 8 9 1006.1 1006.1 11.4
25/11:00pm 11.7 9.2 11.1 96 0.3 NW 15 20 8 11 1005.6 1005.6 11.4
25/10:30pm 11.7 9.6 11.1 96 0.3 NW 13 19 7 10 1005.6 1005.6 11.2
25/10:00pm 11.7 9.6 11.1 96 0.3 NNW 13 19 7 10 1005.8 1005.8 11.2
25/09:30pm 11.7 9.6 11.1 96 0.3 NNW 13 17 7 9 1006.0 1006.0 11.2
25/09:00pm 11.7 9.6 11.1 96 0.3 NW 13 17 7 9 1006.1 1006.1 11.2
25/08:30pm 11.7 9.2 10.9 95 0.4 N 15 22 8 12 1006.1 1006.1 11.0
25/08:00pm 11.7 8.8 10.9 95 0.4 N 17 24 9 13 1006.3 1006.3 10.8
25/07:30pm 11.7 8.4 10.9 95 0.4 N 19 24 10 13 1006.2 1006.2 9.6
25/07:00pm 11.8 8.9 11.0 95 0.4 N 17 24 9 13 1006.2 1006.2 8.2
25/06:30pm 11.7 8.8 10.9 95 0.4 N 17 22 9 12 1006.1 1006.1 7.8
25/06:00pm 11.4 8.8 10.6 95 0.4 N 15 22 8 12 1006.1 1006.1 7.8
25/05:30pm 11.3 8.3 10.5 95 0.4 N 17 22 9 12 1006.4 1006.4 7.8
25/05:00pm 11.3 8.3 10.7 96 0.3 N 17 20 9 11 1006.5 1006.5 7.2
25/04:30pm 11.3 9.0 10.5 95 0.4 N 13 17 7 9 1006.6 1006.6 4.4
25/04:00pm 11.2 8.1 10.4 95 0.4 N 17 24 9 13 1006.6 1006.6 3.0
25/03:30pm 11.3 8.6 10.5 95 0.4 N 15 22 8 12 1006.8 1006.8 3.0
25/03:00pm 11.2 8.1 10.4 95 0.4 N 17 26 9 14 1006.9 1006.9 2.6
25/02:30pm 11.4 7.9 10.1 92 0.7 N 19 26 10 14 1007.0 1007.0 1.8
25/02:00pm 11.4 7.8 10.0 91 0.7 N 19 32 10 17 1007.0 1007.0 1.6
25/01:30pm 11.0 6.8 9.6 91 0.7 N 22 32 12 17 1007.9 1007.9 1.4
25/01:00pm 11.6 6.8 9.0 84 1.3 NNW 24 33 13 18 1008.4 1008.4 0.8
25/12:30pm 11.9 7.2 9.1 83 1.4 N 24 35 13 19 1008.5 1008.5 0.8
25/12:00pm 11.8 6.3 9.2 84 1.3 NNW 28 39 15 21 1009.1 1009.1 0.8
25/11:30am 11.5 7.2 9.4 87 1.1 N 22 37 12 20 1009.8 1009.8 0.8
25/11:00am 11.2 6.5 9.1 87 1.0 N 24 32 13 17 1010.3 1010.3 0.6
25/10:30am 11.0 6.2 8.8 86 1.1 N 24 33 13 18 1010.6 1010.6 0.4
25/10:00am 10.8 6.6 8.2 84 1.3 N 20 28 11 15 1010.9 1010.9 0.2
25/09:30am 11.1 6.8 7.8 80 1.6 N 20 30 11 16 1011.2 1011.2 0.2
25/09:00am 11.3 7.0 7.0 75 2.1 N 19 33 10 18 1011.2 1011.2 0.8
25/08:30am 10.7 6.8 7.2 79 1.7 N 17 24 9 13 1011.5 1011.5 0.8
25/08:00am 11.3 6.8 7.0 75 2.1 N 20 28 11 15 1011.5 1011.5 0.4
25/07:30am 11.9 7.2 6.0 67 2.8 NNW 20 33 11 18 1011.7 1011.7 0.4
25/07:00am 12.7 7.0 4.9 59 3.6 N 24 32 13 17 1011.7 1011.7 0.4
25/06:30am 12.8 7.3 4.0 55 4.0 N 22 30 12 16 1011.4 1011.4 0.4
25/06:00am 13.0 7.1 3.9 54 4.1 N 24 35 13 19 1011.4 1011.4 0.4
25/05:30am 13.2 7.3 3.8 53 4.3 N 24 32 13 17 1011.6 1011.6 0.4
25/05:00am 13.2 8.2 4.4 55 4.0 N 20 30 11 16 1011.6 1011.6 0.4
25/04:30am 13.3 7.9 4.5 55 4.0 N 22 30 12 16 1011.9 1011.9 0.4
25/04:00am 13.7 8.2 4.0 52 4.4 N 22 37 12 20 1012.3 1012.3 0.4
25/03:30am 14.1 8.6 4.1 51 4.6 N 22 33 12 18 1012.4 1012.4 0.4
25/03:00am 13.9 9.0 5.0 55 4.2 N 20 33 11 18 1012.6 1012.6 0.4
25/02:30am 12.9 8.3 6.3 64 3.1 NNE 20 26 11 14 1013.1 1013.1 0.4
25/02:00am 12.5 8.0 6.8 68 2.7 NNE 20 28 11 15 1013.5 1013.5 0.4
25/01:30am 12.8 7.9 7.0 68 2.8 NNE 22 28 12 15 1013.6 1013.6 0.4
25/01:00am 12.6 8.2 7.3 70 2.6 NNE 20 28 11 15 1013.9 1013.9 0.4
25/12:30am 13.1 7.9 7.3 68 2.8 NNE 24 33 13 18 1014.1 1014.1 0.4
25/12:00am 13.1 8.3 7.5 69 2.7 NNE 22 30 12 16 1015.0 1015.1 0.4
 
Date/Time
CST
Temp
°C
App
Temp
°C
Dew
Point
Rel
Hum
%
Delta-T
°C
Wind Press
QNH
hPa
Press
MSL
hPa
Rain
since 9 am
mm
Dir
 
Spd
km/h
Gust
km/h
Spd
kts
Gust
kts
24/11:30pm 12.7 8.5 8.2 74 2.2 NNE 20 28 11 15 1015.5 1015.6 0.4
24/11:00pm 12.7 8.5 8.4 75 2.1 NNE 20 28 11 15 1015.6 1015.7 0.4
24/10:30pm 12.8 9.0 9.1 78 1.9 NNE 19 24 10 13 1016.0 1016.1 0.4
24/10:00pm 12.9 9.6 9.5 80 1.7 NNE 17 22 9 12 1016.3 1016.4 0.4
24/09:30pm 13.2 9.6 9.8 80 1.7 NNE 19 24 10 13 1016.9 1016.9 0.4
24/09:00pm 12.9 9.7 10.1 83 1.4 NE 17 22 9 12 1017.2 1017.2 0.4
24/08:30pm 12.8 10.1 10.5 86 1.2 NE 15 19 8 10 1017.3 1017.3 0.4
24/08:00pm 12.8 10.5 10.5 86 1.2 NE 13 15 7 8 1017.3 1017.3 0.4
24/07:30pm 13.1 10.9 10.8 86 1.2 NE 13 15 7 8 1017.7 1017.7 0.4
24/07:00pm 13.2 11.0 10.9 86 1.2 NE 13 15 7 8 1017.7 1017.7 0.4
24/06:30pm 12.9 10.8 11.0 88 1.0 NE 13 15 7 8 1017.9 1017.9 0.4
24/06:00pm 13.3 11.9 11.0 86 1.2 N 9 11 5 6 1018.3 1018.3 0.4
24/05:30pm 13.7 12.0 11.2 85 1.3 N 11 11 6 6 1018.1 1018.1 0.4
24/05:00pm 14.8 13.4 10.8 77 2.1 N 9 11 5 6 1018.3 1018.3 0.4
24/04:30pm 16.3 15.2 11.9 75 2.4 NNW 9 13 5 7 1018.5 1018.5 0.4
24/04:00pm 16.9 15.0 11.8 72 2.8 NNW 13 20 7 11 1018.7 1018.7 0.4
24/03:30pm 17.3 14.9 11.3 68 3.2 NNW 15 19 8 10 1018.6 1018.6 0.4
24/03:00pm 17.8 15.2 12.0 69 3.2 NNW 17 24 9 13 1018.4 1018.4 0.4
24/02:30pm 16.9 15.2 12.6 76 2.4 NNW 13 17 7 9 1018.3 1018.3 0.4
24/02:00pm 17.5 15.9 12.8 74 2.6 NNW 13 17 7 9 1018.8 1018.8 0.4
24/01:30pm 16.4 14.0 12.6 78 2.1 NNW 17 20 9 11 1019.3 1019.3 0.2
24/01:00pm 16.1 14.0 12.5 79 2.0 NW 15 20 8 11 1019.6 1019.6 0.2
24/12:30pm 15.8 13.5 12.9 83 1.6 NNW 17 22 9 12 1020.1 1020.1 0.2
24/12:00pm 15.4 14.8 13.6 89 1.0 NNE 9 15 5 8 1020.4 1020.4 0.2
24/11:30am 15.3 14.7 13.5 89 1.0 NNE 9 15 5 8 1020.8 1020.8 0.2
24/11:00am 14.7 14.1 13.6 93 0.6 N 9 11 5 6 1021.7 1021.7 0.2
24/10:30am 14.2 13.6 13.6 96 0.3 N 9 13 5 7 1022.2 1022.2 0.2
24/10:00am 13.7 12.7 13.4 98 0.2 N 11 15 6 8 1022.2 1022.2 0.2
24/09:30am 13.4 13.0 13.1 98 0.2 NNW 7 11 4 6 1022.4 1022.4 0.2
24/09:00am 12.9 12.0 12.6 98 0.2 NW 9 13 5 7 1022.7 1022.7 3.6
24/08:30am 12.5 10.7 12.0 97 0.3 NNW 13 17 7 9 1022.4 1022.4 3.6
24/08:00am 12.4 11.7 11.9 97 0.3 N 7 9 4 5 1022.3 1022.3 3.6
24/07:30am 12.5 12.0 12.0 97 0.3 ENE 6 11 3 6 1022.2 1022.2 3.6
24/07:00am 12.1 11.8 11.6 97 0.3 NNE 4 7 2 4 1022.0 1022.0 3.6
24/06:30am 12.1 11.3 11.6 97 0.3 NNW 7 11 4 6 1021.8 1021.8 3.6
24/06:00am 11.9 10.6 11.4 97 0.3 NNW 9 11 5 6 1021.3 1021.3 3.6
24/05:30am 11.9 10.6 11.4 97 0.3 NNW 9 11 5 6 1021.0 1021.0 3.6
24/05:00am 11.9 11.6 11.4 97 0.3 N 4 7 2 4 1020.9 1020.9 3.6
24/04:30am 12.0 11.3 11.5 97 0.3 N 6 7 3 4 1020.9 1020.9 3.6
24/04:00am 12.0 11.1 11.5 97 0.3 NNW 7 9 4 5 1020.8 1020.8 3.6
24/03:30am 11.8 10.9 11.3 97 0.3 N 7 9 4 5 1020.8 1020.8 3.4
24/03:00am 11.9 11.2 11.4 97 0.3 NNW 6 9 3 5 1021.0 1021.0 3.4
24/02:30am 11.8 10.9 11.3 97 0.3 NNW 7 9 4 5 1021.1 1021.1 3.4
24/02:00am 11.7 10.4 11.1 96 0.3 NNW 9 11 5 6 1021.2 1021.2 3.4
24/01:30am 11.6 10.2 11.0 96 0.3 NW 9 11 5 6 1021.3 1021.3 3.4
24/01:00am 11.6 10.2 11.0 96 0.3 NNW 9 11 5 6 1021.4 1021.4 3.4
24/12:30am 11.6 10.6 11.0 96 0.3 N 7 9 4 5 1021.4 1021.4 3.4
24/12:00am 11.6 10.6 11.0 96 0.3 NNW 7 9 4 5 1021.6 1021.6 3.4
 
Date/Time
CST
Temp
°C
App
Temp
°C
Dew
Point
Rel
Hum
%
Delta-T
°C
Wind Press
QNH
hPa
Press
MSL
hPa
Rain
since 9 am
mm
Dir
 
Spd
km/h
Gust
km/h
Spd
kts
Gust
kts
23/11:30pm 11.4 10.0 10.8 96 0.3 N 9 11 5 6 1021.6 1021.6 3.4
23/11:00pm 11.1 9.5 10.3 95 0.4 NNW 9 13 5 7 1021.8 1021.8 3.2
23/10:30pm 11.0 9.7 10.1 94 0.5 N 7 9 4 5 1021.9 1021.9 3.2
23/10:00pm 11.7 10.6 10.8 94 0.5 NW 7 9 4 5 1022.1 1022.1 3.2
23/09:30pm 12.2 10.5 11.3 94 0.5 NW 11 13 6 7 1022.1 1022.1 3.2
23/09:00pm 12.2 10.6 11.4 95 0.4 WSW 11 13 6 7 1021.9 1021.9 3.2
23/08:30pm 12.0 10.3 11.1 94 0.5 W 11 15 6 8 1021.7 1021.7 2.8
23/08:00pm 11.8 9.6 10.9 94 0.5 WSW 13 15 7 8 1021.7 1021.7 2.6
23/07:30pm 11.7 9.5 10.8 94 0.5 WNW 13 15 7 8 1021.4 1021.4 2.6
23/07:00pm 11.5 8.8 10.2 92 0.7 WSW 15 17 8 9 1021.3 1021.3 2.6
23/06:30pm 12.5 10.9 11.6 94 0.5 WSW 11 13 6 7 1021.2 1021.2 2.6

Other Formats:

Comma delimited format used in spreadsheet applications
http://www.bom.gov.au/fwo/IDS60801/IDS60801.94820.axf

JavaScript Object Notation format (JSON) in row-major order
http://www.bom.gov.au/fwo/IDS60801/IDS60801.94820.json